createdAt,value
2022-09-20T00:01:54.797Z,81.20
2022-09-20T00:04:23.582Z,81.25
2022-09-20T00:06:53.067Z,81.03
2022-09-20T00:09:21.944Z,81.10
2022-09-20T00:11:52.178Z,81.11
2022-09-20T00:14:22.918Z,81.03
2022-09-20T00:16:51.979Z,80.76
2022-09-20T00:19:24.042Z,80.68
2022-09-20T00:21:52.970Z,80.62
2022-09-20T00:24:22.154Z,80.55
2022-09-20T00:26:52.162Z,80.63
2022-09-20T00:29:22.198Z,80.85
2022-09-20T00:31:51.168Z,80.75
2022-09-20T00:34:38.338Z,80.78
2022-09-20T00:37:08.554Z,81.11
2022-09-20T00:39:37.353Z,80.87
2022-09-20T00:42:08.172Z,80.84
2022-09-20T00:45:02.185Z,81.12
2022-09-20T00:47:51.707Z,81.32
2022-09-20T00:50:23.554Z,80.91
2022-09-20T00:53:16.542Z,81.18
2022-09-20T00:55:54.596Z,81.18
2022-09-20T00:58:26.967Z,81.02
2022-09-20T01:00:58.459Z,81.05
2022-09-20T01:03:31.709Z,81.23
2022-09-20T01:06:06.735Z,81.21
2022-09-20T01:08:36.980Z,81.16
2022-09-20T01:11:06.286Z,81.12
2022-09-20T01:13:35.684Z,81.06
2022-09-20T01:16:06.518Z,81.27
2022-09-20T01:18:38.731Z,81.39
2022-09-20T01:21:11.331Z,81.44
2022-09-20T01:24:16.996Z,81.65
2022-09-20T01:26:53.962Z,81.94
2022-09-20T01:29:39.908Z,81.63
2022-09-20T01:32:13.547Z,81.63
2022-09-20T01:34:48.755Z,81.75
2022-09-20T01:37:49.092Z,81.69
2022-09-20T01:40:33.409Z,81.72
2022-09-20T01:43:08.003Z,81.61
2022-09-20T01:45:47.231Z,81.86
2022-09-20T01:48:31.499Z,81.71
2022-09-20T01:51:40.042Z,81.75
2022-09-20T01:54:28.692Z,82.07
2022-09-20T01:57:25.062Z,81.88
2022-09-20T02:00:18.047Z,81.88
2022-09-20T02:03:27.147Z,81.92
2022-09-20T02:06:18.164Z,81.82
2022-09-20T02:09:23.659Z,81.76
2022-09-20T02:12:24.700Z,81.94
2022-09-20T02:15:42.824Z,81.89
2022-09-20T02:18:30.092Z,81.83
2022-09-20T02:21:45.879Z,82.00
2022-09-20T02:24:54.401Z,82.13
2022-09-20T02:30:56.815Z,81.80
2022-09-20T02:33:39.356Z,81.79
2022-09-20T02:36:23.172Z,81.68
2022-09-20T02:39:11.552Z,81.60
2022-09-20T02:42:19.233Z,81.27
2022-09-20T02:45:27.018Z,81.40
2022-09-20T02:48:01.251Z,81.66
2022-09-20T02:50:43.721Z,81.80
2022-09-20T02:53:31.360Z,82.50
2022-09-20T02:56:00.064Z,82.04
2022-09-20T02:58:56.284Z,81.76
2022-09-20T03:02:01.504Z,82.17
2022-09-20T03:04:39.463Z,82.11
2022-09-20T03:07:34.371Z,81.85
2022-09-20T03:10:16.953Z,82.05
2022-09-20T03:13:13.283Z,81.80
2022-09-20T03:16:09.429Z,81.36
2022-09-20T03:18:48.675Z,81.52
2022-09-20T03:21:50.259Z,81.52
2022-09-20T03:24:34.919Z,81.33
2022-09-20T03:27:20.401Z,81.23
2022-09-20T03:30:19.784Z,81.33
2022-09-20T03:33:19.971Z,81.34
2022-09-20T03:35:59.749Z,81.57
2022-09-20T03:38:51.542Z,81.55
2022-09-20T03:41:55.321Z,81.52
2022-09-20T03:44:44.195Z,81.64
2022-09-20T03:48:06.794Z,82.03
2022-09-20T03:50:43.292Z,81.83
2022-09-20T03:53:46.974Z,81.77
2022-09-20T03:56:21.931Z,82.10
2022-09-20T03:59:18.853Z,81.86
2022-09-20T04:02:06.651Z,81.76
2022-09-20T04:04:58.042Z,82.07
2022-09-20T04:07:48.343Z,81.94
2022-09-20T04:10:47.347Z,81.76
2022-09-20T04:13:36.552Z,81.79
2022-09-20T04:16:27.811Z,81.58
2022-09-20T04:19:04.850Z,81.74
2022-09-20T04:21:51.636Z,81.79
2022-09-20T04:24:26.981Z,82.01
2022-09-20T04:27:15.983Z,81.73
2022-09-20T04:29:53.523Z,81.94
2022-09-20T04:32:31.444Z,82.24
2022-09-20T04:35:24.903Z,82.50
2022-09-20T04:37:54.891Z,82.22
2022-09-20T04:41:07.898Z,82.17
2022-09-20T04:44:26.970Z,82.10
2022-09-20T04:46:56.300Z,82.19
2022-09-20T04:50:01.214Z,82.09
2022-09-20T04:52:56.330Z,82.10
2022-09-20T04:55:45.870Z,82.38
2022-09-20T04:58:35.654Z,82.08
2022-09-20T05:01:17.300Z,81.86
2022-09-20T05:03:59.752Z,82.04
2022-09-20T05:06:49.494Z,82.09
2022-09-20T05:09:36.309Z,81.84
2022-09-20T05:12:52.618Z,82.25
2022-09-20T05:15:36.710Z,82.00
2022-09-20T05:18:37.397Z,81.89
2022-09-20T05:21:24.750Z,81.79
2022-09-20T05:24:12.592Z,82.03
2022-09-20T05:27:03.053Z,82.16
2022-09-20T05:30:03.152Z,81.85
2022-09-20T05:32:46.742Z,81.50
2022-09-20T05:35:32.092Z,81.70
2022-09-20T05:38:25.704Z,81.61
2022-09-20T05:41:04.263Z,81.35
2022-09-20T05:44:00.183Z,81.39
2022-09-20T05:46:41.524Z,81.35
2022-09-20T05:49:41.466Z,81.34
2022-09-20T05:52:10.135Z,81.72
2022-09-20T05:55:08.395Z,81.89
2022-09-20T05:57:58.103Z,81.76
2022-09-20T06:00:33.399Z,81.50
2022-09-20T06:03:41.244Z,81.27
2022-09-20T06:06:22.138Z,81.68
2022-09-20T06:09:11.075Z,81.04
2022-09-20T06:12:12.151Z,81.08
2022-09-20T06:15:03.799Z,80.98
2022-09-20T06:17:50.164Z,80.94
2022-09-20T06:20:50.863Z,80.90
2022-09-20T06:23:21.722Z,80.59
2022-09-20T06:26:18.583Z,80.47
2022-09-20T06:28:56.449Z,81.02
2022-09-20T06:31:29.071Z,80.56
2022-09-20T06:34:09.293Z,80.44
2022-09-20T06:37:00.995Z,80.11
2022-09-20T06:40:38.123Z,79.58
2022-09-20T06:43:07.580Z,78.99
2022-09-20T06:45:37.923Z,79.11
2022-09-20T06:48:13.661Z,79.43
2022-09-20T06:50:45.716Z,79.31
2022-09-20T06:53:18.478Z,79.33
2022-09-20T06:55:49.981Z,78.83
2022-09-20T06:58:20.279Z,77.65
2022-09-20T07:00:49.677Z,75.95
2022-09-20T07:03:20.034Z,74.50
2022-09-20T07:05:49.586Z,73.96
2022-09-20T07:08:19.859Z,72.59
2022-09-20T07:10:50.539Z,71.98
2022-09-20T07:13:21.763Z,72.90
2022-09-20T07:15:51.793Z,73.75
2022-09-20T07:18:21.265Z,74.35
2022-09-20T07:20:53.524Z,75.65
2022-09-20T07:23:22.839Z,75.76
2022-09-20T07:25:53.668Z,75.52
2022-09-20T07:28:23.633Z,74.11
2022-09-20T07:30:53.829Z,71.53
2022-09-20T07:33:25.437Z,68.36
2022-09-20T07:35:55.970Z,67.06
2022-09-20T07:38:26.940Z,65.91
2022-09-20T07:41:00.178Z,63.27
2022-09-20T07:43:31.209Z,61.02
2022-09-20T07:46:00.439Z,61.91
2022-09-20T07:48:36.554Z,62.74
2022-09-20T07:51:09.032Z,59.81
2022-09-20T07:53:38.786Z,57.95
2022-09-20T07:56:15.189Z,57.60
2022-09-20T07:58:48.635Z,56.96
2022-09-20T08:01:22.607Z,54.82
2022-09-20T08:03:52.952Z,52.86
2022-09-20T08:06:22.692Z,53.51
2022-09-20T08:08:55.265Z,54.74
2022-09-20T08:11:28.979Z,53.75
2022-09-20T08:14:08.773Z,53.32
2022-09-20T08:16:44.431Z,52.95
2022-09-20T08:19:23.106Z,55.19
2022-09-20T08:21:54.246Z,57.49
2022-09-20T08:24:23.135Z,56.96
2022-09-20T08:26:52.458Z,58.65
2022-09-20T08:29:21.373Z,58.24
2022-09-20T08:31:53.051Z,58.92
2022-09-20T08:34:21.828Z,58.45
2022-09-20T08:36:56.910Z,56.57
2022-09-20T08:42:36.664Z,56.98
2022-09-20T08:45:34.410Z,56.10
2022-09-20T08:48:14.843Z,55.49
2022-09-20T08:50:44.426Z,56.95
2022-09-20T08:53:22.616Z,56.04
2022-09-20T08:55:51.534Z,56.72
2022-09-20T08:58:21.072Z,57.59
2022-09-20T09:00:50.932Z,56.84
2022-09-20T09:03:20.024Z,56.50
2022-09-20T09:05:53.285Z,56.38
2022-09-20T09:08:37.680Z,56.43
2022-09-20T09:11:12.293Z,57.38
2022-09-20T09:14:01.962Z,56.22
2022-09-20T09:16:36.597Z,56.80
2022-09-20T09:19:34.143Z,56.74
2022-09-20T09:22:06.453Z,58.71
2022-09-20T09:24:36.223Z,57.33
2022-09-20T09:27:18.233Z,56.74
2022-09-20T09:29:53.054Z,58.10
2022-09-20T09:32:29.634Z,59.35
2022-09-20T09:35:36.325Z,58.56
2022-09-20T09:38:05.196Z,61.07
2022-09-20T09:40:34.159Z,60.42
2022-09-20T09:43:04.453Z,59.75
2022-09-20T09:45:39.205Z,62.20
2022-09-20T09:48:27.158Z,62.51
2022-09-20T09:51:17.177Z,63.80
2022-09-20T09:53:49.013Z,63.55
2022-09-20T09:56:47.767Z,64.79
2022-09-20T09:59:31.598Z,65.80
2022-09-20T10:02:07.225Z,66.47
2022-09-20T10:04:56.948Z,66.62
2022-09-20T10:07:30.884Z,65.83
2022-09-20T10:10:26.026Z,62.88
2022-09-20T10:13:24.465Z,60.39
2022-09-20T10:15:56.111Z,59.35
2022-09-20T10:18:50.005Z,58.48
2022-09-20T10:21:51.936Z,58.67
2022-09-20T10:24:31.388Z,58.38
2022-09-20T10:27:52.548Z,57.35
2022-09-20T10:30:24.493Z,58.00
2022-09-20T10:33:10.211Z,56.19
2022-09-20T10:35:58.200Z,56.36
2022-09-20T10:38:59.091Z,56.92
2022-09-20T10:41:46.484Z,57.63
2022-09-20T10:44:21.382Z,57.20
2022-09-20T10:47:04.145Z,57.93
2022-09-20T10:50:08.116Z,57.25
2022-09-20T10:53:09.489Z,57.54
2022-09-20T10:56:04.377Z,56.94
2022-09-20T10:59:00.561Z,56.62
2022-09-20T11:01:30.313Z,56.57
2022-09-20T11:04:09.414Z,56.08
2022-09-20T11:07:20.622Z,54.84
2022-09-20T11:10:01.043Z,55.08
2022-09-20T11:12:43.224Z,55.01
2022-09-20T11:15:30.051Z,55.18
2022-09-20T11:18:06.917Z,55.00
2022-09-20T11:21:02.851Z,54.36
2022-09-20T11:23:44.498Z,54.11
2022-09-20T11:26:26.400Z,53.71
2022-09-20T11:29:04.790Z,53.25
2022-09-20T11:31:41.834Z,53.01
2022-09-20T11:34:31.599Z,52.63
2022-09-20T11:37:03.709Z,52.24
2022-09-20T11:39:42.883Z,51.97
2022-09-20T11:42:17.006Z,50.52
2022-09-20T11:44:46.479Z,50.54
2022-09-20T11:47:49.714Z,51.22
2022-09-20T11:50:35.643Z,51.68
2022-09-20T11:53:26.253Z,51.92
2022-09-20T11:56:02.581Z,51.97
2022-09-20T11:58:34.277Z,51.74
2022-09-20T12:01:14.675Z,51.63
2022-09-20T12:03:50.796Z,51.75
2022-09-20T12:06:39.110Z,50.64
2022-09-20T12:09:24.891Z,50.35
2022-09-20T12:11:57.084Z,50.44
2022-09-20T12:14:28.660Z,50.08
2022-09-20T12:16:58.942Z,50.60
2022-09-20T12:19:35.549Z,50.04
2022-09-20T12:22:09.492Z,49.79
2022-09-20T12:24:45.319Z,50.41
2022-09-20T12:27:30.974Z,50.55
2022-09-20T12:30:22.686Z,50.97
2022-09-20T12:32:58.540Z,51.21
2022-09-20T12:35:36.576Z,50.36
2022-09-20T12:38:20.534Z,50.26
2022-09-20T12:41:04.253Z,50.43
2022-09-20T12:43:36.267Z,50.54
2022-09-20T12:46:11.270Z,50.79
2022-09-20T12:48:42.560Z,50.51
2022-09-20T12:51:43.745Z,50.48
2022-09-20T12:54:14.464Z,49.77
2022-09-20T12:56:47.130Z,49.87
2022-09-20T12:59:31.335Z,49.78
2022-09-20T13:02:38.817Z,49.69
2022-09-20T13:05:32.716Z,50.00
2022-09-20T13:08:18.528Z,49.88
2022-09-20T13:11:13.700Z,49.84
2022-09-20T13:14:08.904Z,49.86
2022-09-20T13:17:14.326Z,50.06
2022-09-20T13:19:47.090Z,49.95
2022-09-20T13:22:45.774Z,49.87
2022-09-20T13:25:18.144Z,50.03
2022-09-20T13:28:07.636Z,50.13
2022-09-20T13:30:37.880Z,50.24
2022-09-20T13:33:17.900Z,50.19
2022-09-20T13:35:50.329Z,50.27
2022-09-20T13:38:23.016Z,50.37
2022-09-20T13:40:54.679Z,50.44
2022-09-20T13:43:47.139Z,50.56
2022-09-20T13:46:27.076Z,50.74
2022-09-20T13:49:18.059Z,50.68
2022-09-20T13:51:49.484Z,50.65
2022-09-20T13:54:31.920Z,50.76
2022-09-20T13:57:05.749Z,51.05
2022-09-20T13:59:43.887Z,51.08
2022-09-20T14:02:40.717Z,51.16
2022-09-20T14:05:19.115Z,51.28
2022-09-20T14:07:49.362Z,51.46
2022-09-20T14:10:37.564Z,51.42
2022-09-20T14:13:09.521Z,51.52
2022-09-20T14:15:46.221Z,51.69
2022-09-20T14:18:21.738Z,51.78
2022-09-20T14:20:51.772Z,51.81
2022-09-20T14:23:26.788Z,51.94
2022-09-20T14:26:09.458Z,52.22
2022-09-20T14:28:38.260Z,52.65
2022-09-20T14:31:13.987Z,52.65
2022-09-20T14:33:52.953Z,52.52
2022-09-20T14:36:33.090Z,52.26
2022-09-20T14:39:05.883Z,52.37
2022-09-20T14:41:40.608Z,52.54
2022-09-20T14:44:36.645Z,52.66
2022-09-20T14:47:17.251Z,53.05
2022-09-20T14:49:47.538Z,53.27
2022-09-20T14:52:45.669Z,52.91
2022-09-20T14:55:15.176Z,52.97
2022-09-20T14:57:46.819Z,52.95
2022-09-20T15:00:24.188Z,53.04
2022-09-20T15:02:53.913Z,53.45
2022-09-20T15:05:28.758Z,53.42
2022-09-20T15:08:00.960Z,53.58
2022-09-20T15:10:30.911Z,53.46
2022-09-20T15:13:06.242Z,53.48
2022-09-20T15:15:37.329Z,53.32
2022-09-20T15:18:23.927Z,53.33
2022-09-20T15:20:55.949Z,53.23
2022-09-20T15:23:25.789Z,53.43
2022-09-20T15:25:57.529Z,53.09
2022-09-20T15:28:28.620Z,53.10
2022-09-20T15:30:58.350Z,53.25
2022-09-20T15:33:31.121Z,53.31
2022-09-20T15:36:02.746Z,53.17
2022-09-20T15:38:31.921Z,53.10
2022-09-20T15:41:04.555Z,53.19
2022-09-20T15:43:34.398Z,53.14
2022-09-20T15:46:22.977Z,53.18
2022-09-20T15:48:55.657Z,53.16
2022-09-20T15:51:24.646Z,53.25
2022-09-20T15:53:57.721Z,53.34
2022-09-20T15:56:33.368Z,53.34
2022-09-20T15:59:07.481Z,53.24
2022-09-20T16:01:40.282Z,53.47
2022-09-20T16:04:13.307Z,53.60
2022-09-20T16:06:45.010Z,53.66
2022-09-20T16:09:15.169Z,53.61
2022-09-20T16:11:44.079Z,53.76
2022-09-20T16:14:15.369Z,53.71
2022-09-20T16:16:51.004Z,53.66
2022-09-20T16:19:22.744Z,53.68
2022-09-20T16:21:59.127Z,53.75
2022-09-20T16:24:32.131Z,53.96
2022-09-20T16:27:05.212Z,53.96
2022-09-20T16:29:36.379Z,54.06
2022-09-20T16:32:06.718Z,54.05
2022-09-20T16:34:37.476Z,54.13
2022-09-20T16:37:14.898Z,54.27
2022-09-20T16:39:47.214Z,54.31
2022-09-20T16:42:19.187Z,54.41
2022-09-20T16:44:48.197Z,54.52
2022-09-20T16:47:25.908Z,54.53
2022-09-20T16:49:57.095Z,54.66
2022-09-20T16:52:28.084Z,54.69
2022-09-20T16:54:59.752Z,54.55
2022-09-20T16:57:34.336Z,54.97
2022-09-20T17:00:07.020Z,55.01
2022-09-20T17:02:37.758Z,55.14
2022-09-20T17:05:08.078Z,55.35
2022-09-20T17:07:36.820Z,55.22
2022-09-20T17:10:07.198Z,55.50
2022-09-20T17:12:47.318Z,55.68
2022-09-20T17:15:18.000Z,55.61
2022-09-20T17:17:47.211Z,55.80
2022-09-20T17:20:17.987Z,55.95
2022-09-20T17:22:47.399Z,55.96
2022-09-20T17:25:16.570Z,56.11
2022-09-20T17:27:51.868Z,56.28
2022-09-20T17:30:25.619Z,56.35
2022-09-20T17:32:56.373Z,56.42
2022-09-20T17:35:29.707Z,56.68
2022-09-20T17:38:01.987Z,56.64
2022-09-20T17:40:31.715Z,56.85
2022-09-20T17:43:00.936Z,56.92
2022-09-20T17:45:31.199Z,56.83
2022-09-20T17:48:00.777Z,57.08
2022-09-20T17:50:32.397Z,57.10
2022-09-20T17:53:01.729Z,57.21
2022-09-20T17:55:33.113Z,57.35
2022-09-20T17:58:02.788Z,57.28
2022-09-20T18:00:32.788Z,57.32
2022-09-20T18:03:05.102Z,57.42
2022-09-20T18:05:36.069Z,57.47
2022-09-20T18:08:08.068Z,57.84
2022-09-20T18:10:38.365Z,57.68
2022-09-20T18:13:10.712Z,57.78
2022-09-20T18:15:55.085Z,57.77
2022-09-20T18:18:24.689Z,58.15
2022-09-20T18:20:54.638Z,58.13
2022-09-20T18:23:24.206Z,58.16
2022-09-20T18:26:14.050Z,58.09
2022-09-20T18:28:48.974Z,58.28
2022-09-20T18:31:21.930Z,58.27
2022-09-20T18:34:00.294Z,58.47
2022-09-20T18:36:31.142Z,58.34
2022-09-20T18:39:01.364Z,58.49
2022-09-20T18:41:33.761Z,58.54
2022-09-20T18:44:04.816Z,58.59
2022-09-20T18:46:38.688Z,58.70
2022-09-20T18:49:10.047Z,58.63
2022-09-20T18:51:40.496Z,58.89
2022-09-20T18:54:12.153Z,59.01
2022-09-20T18:56:43.681Z,58.98
2022-09-20T18:59:19.336Z,58.88
2022-09-20T19:01:51.177Z,59.08
2022-09-20T19:04:59.241Z,59.03
2022-09-20T19:07:28.813Z,59.13
2022-09-20T19:10:27.514Z,59.27
2022-09-20T19:13:39.332Z,59.39
2022-09-20T19:16:22.588Z,59.43
2022-09-20T19:19:15.206Z,59.77
2022-09-20T19:22:04.896Z,59.63
2022-09-20T19:25:15.389Z,60.08
2022-09-20T19:27:44.756Z,59.81
2022-09-20T19:30:15.655Z,59.90
2022-09-20T19:32:48.391Z,59.98
2022-09-20T19:35:24.841Z,60.24
2022-09-20T19:38:15.865Z,60.16
2022-09-20T19:40:59.237Z,60.23
2022-09-20T19:43:55.795Z,60.33
2022-09-20T19:46:47.587Z,60.33
2022-09-20T19:49:32.596Z,60.36
2022-09-20T19:52:04.980Z,60.47
2022-09-20T19:54:42.183Z,60.66
2022-09-20T19:57:20.719Z,60.63
2022-09-20T19:59:51.303Z,60.84
2022-09-20T20:02:21.477Z,60.90
2022-09-20T20:05:05.259Z,60.74
2022-09-20T20:07:43.447Z,60.94
2022-09-20T20:10:19.427Z,61.00
2022-09-20T20:13:39.093Z,61.04
2022-09-20T20:16:15.691Z,61.01
2022-09-20T20:19:16.208Z,61.24
2022-09-20T20:22:11.109Z,61.22
2022-09-20T20:24:46.407Z,61.39
2022-09-20T20:27:16.233Z,61.29
2022-09-20T20:29:47.930Z,61.05
2022-09-20T20:32:17.779Z,61.12
2022-09-20T20:34:47.900Z,61.32
2022-09-20T20:37:18.467Z,61.32
2022-09-20T20:39:49.592Z,61.49
2022-09-20T20:42:19.052Z,61.24
2022-09-20T20:44:48.352Z,61.52
2022-09-20T20:47:19.211Z,61.64
2022-09-20T20:49:52.500Z,61.41
2022-09-20T20:52:24.965Z,61.58
2022-09-20T20:54:55.178Z,61.50
2022-09-20T20:57:24.387Z,61.59
2022-09-20T20:59:53.385Z,61.57
2022-09-20T21:02:24.451Z,61.51
2022-09-20T21:04:54.947Z,61.71
2022-09-20T21:07:23.850Z,61.83
2022-09-20T21:09:52.888Z,61.95
2022-09-20T21:12:22.825Z,62.01
2022-09-20T21:14:54.475Z,62.07
2022-09-20T21:17:25.009Z,62.18
2022-09-20T21:19:56.169Z,62.13
2022-09-20T21:22:25.008Z,62.45
2022-09-20T21:24:55.834Z,62.37
2022-09-20T21:27:26.500Z,62.42
2022-09-20T21:29:57.010Z,62.39
2022-09-20T21:32:27.323Z,62.51
2022-09-20T21:34:56.108Z,62.47
2022-09-20T21:37:27.420Z,62.38
2022-09-20T21:39:57.197Z,62.49
2022-09-20T21:42:27.605Z,62.74
2022-09-20T21:44:57.267Z,62.71
2022-09-20T21:47:26.230Z,62.77
2022-09-20T21:49:56.848Z,62.70
2022-09-20T21:52:28.205Z,62.65
2022-09-20T21:54:58.118Z,62.92
2022-09-20T21:57:29.296Z,62.95
2022-09-20T21:59:59.353Z,63.01
2022-09-20T22:02:28.626Z,63.16
2022-09-20T22:04:59.604Z,63.12
2022-09-20T22:07:29.861Z,63.05
2022-09-20T22:09:59.696Z,63.20
2022-09-20T22:12:28.627Z,63.24
2022-09-20T22:14:59.416Z,63.33
2022-09-20T22:17:29.963Z,63.50
2022-09-20T22:19:59.948Z,63.33
2022-09-20T22:22:30.387Z,63.37
2022-09-20T22:24:59.165Z,63.37
2022-09-20T22:27:29.668Z,63.26
2022-09-20T22:30:01.499Z,63.29
2022-09-20T22:32:34.106Z,63.34
2022-09-20T22:35:05.295Z,63.53
2022-09-20T22:37:34.096Z,63.57
2022-09-20T22:40:05.596Z,63.55
2022-09-20T22:42:35.835Z,63.48
2022-09-20T22:45:06.114Z,63.38
2022-09-20T22:47:35.802Z,63.71
2022-09-20T22:50:05.976Z,63.69
2022-09-20T22:52:35.306Z,63.98
2022-09-20T22:55:06.122Z,64.15
2022-09-20T22:57:36.474Z,64.01
2022-09-20T23:00:06.614Z,64.17
2022-09-20T23:02:37.264Z,64.20
2022-09-20T23:05:06.708Z,64.10
2022-09-20T23:07:35.599Z,64.19
2022-09-20T23:10:06.098Z,64.34
2022-09-20T23:12:35.020Z,64.37
2022-09-20T23:15:05.538Z,64.38
2022-09-20T23:17:34.322Z,64.19
2022-09-20T23:20:06.412Z,64.22
2022-09-20T23:22:35.443Z,64.24
2022-09-20T23:25:04.532Z,64.31
2022-09-20T23:27:33.417Z,64.41
2022-09-20T23:30:02.889Z,64.25
2022-09-20T23:32:31.826Z,64.48
2022-09-20T23:35:01.423Z,64.47
2022-09-20T23:37:32.014Z,64.34
2022-09-20T23:40:01.191Z,64.51
2022-09-20T23:42:30.401Z,64.55
2022-09-20T23:44:59.288Z,64.71
2022-09-20T23:47:29.989Z,64.61
2022-09-20T23:50:00.815Z,64.62
2022-09-20T23:52:30.662Z,64.86
2022-09-20T23:54:59.585Z,64.89
2022-09-20T23:57:31.198Z,64.79
